Time;durP1;ratioP1;P1;durP2;ratioP2;P2;SDS_P1;SDS_P2;PMS_P1;PMS_P2;Temp;Humidity;BMP_temperature;BMP_pressure;BME280_temperature;BME280_humidity;BME280_pressure;Samples;Min_cycle;Max_cycle;Signal;HPM_P1;HPM_P2
2023/06/11 00:00:31;;;;;;;5.60;5.10;;;17.40;83.00;;;-147.95;100.00;61948.03;5028674;28;20469;-74
2023/06/11 00:02:58;;;;;;;6.13;5.53;;;17.40;83.20;;;-147.95;100.00;61948.03;5027654;28;20461;-71
2023/06/11 00:05:27;;;;;;;5.93;5.43;;;17.30;83.30;;;-147.95;100.00;61948.03;5028016;28;20466;-72
2023/06/11 00:08:00;;;;;;;7.10;6.40;;;17.30;83.40;;;-147.95;100.00;61948.03;5028571;28;20559;-71
2023/06/11 00:10:27;;;;;;;6.40;5.80;;;17.30;83.50;;;-147.95;100.00;61948.03;5010536;28;20799;-73
2023/06/11 00:12:54;;;;;;;5.93;5.43;;;17.20;83.80;;;-147.95;100.00;61948.03;5028646;28;20465;-72
2023/06/11 00:15:23;;;;;;;6.50;5.90;;;17.00;84.10;;;-147.95;100.00;61948.03;5027923;28;20462;-72
2023/06/11 00:17:50;;;;;;;6.80;6.20;;;16.90;85.20;;;-147.95;100.00;61948.03;5010277;28;20512;-71
2023/06/11 00:20:17;;;;;;;6.33;5.73;;;16.80;85.50;;;-147.95;100.00;61948.03;5028139;28;20781;-71
2023/06/11 00:22:45;;;;;;;6.80;6.03;;;16.80;85.50;;;-147.95;100.00;61948.03;5028220;28;20462;-71
2023/06/11 00:25:13;;;;;;;6.83;5.60;;;16.80;85.60;;;-147.95;100.00;61948.03;5027754;28;20553;-71
2023/06/11 00:27:40;;;;;;;6.37;5.70;;;16.70;85.80;;;-147.95;100.00;61948.03;5010126;28;20457;-73
2023/06/11 00:30:08;;;;;;;6.27;5.67;;;16.70;86.10;;;-147.95;100.00;61948.03;5010042;28;20477;-71
2023/06/11 00:32:36;;;;;;;6.53;5.23;;;16.70;86.60;;;-147.95;100.00;61948.03;5028053;28;20462;-72
2023/06/11 00:35:06;;;;;;;6.33;5.73;;;16.70;86.70;;;-147.95;100.00;61948.03;5010124;28;20572;-70
2023/06/11 00:37:35;;;;;;;6.53;5.93;;;16.70;86.40;;;-147.95;100.00;61948.03;5027480;28;20456;-73
2023/06/11 00:40:03;;;;;;;6.67;6.00;;;16.70;87.00;;;-147.95;100.00;61948.03;5010305;28;21270;-71
2023/06/11 00:42:33;;;;;;;5.90;5.40;;;16.70;86.60;;;-147.95;100.00;61948.03;5010450;28;20461;-72
2023/06/11 00:45:03;;;;;;;6.37;5.77;;;16.60;86.80;;;-147.95;100.00;61948.03;5028521;28;20574;-70
2023/06/11 00:47:32;;;;;;;7.20;6.50;;;16.60;87.10;;;-147.95;100.00;61948.03;5027394;28;20465;-72
2023/06/11 00:50:02;;;;;;;6.40;5.83;;;16.60;87.40;;;-147.95;100.00;61948.03;5028247;28;20484;-71
2023/06/11 00:52:29;;;;;;;6.77;6.10;;;16.50;87.10;;;-147.95;100.00;61948.03;5028489;28;20484;-71
2023/06/11 00:54:57;;;;;;;6.47;5.87;;;16.60;87.20;;;-147.95;100.00;61948.03;5028454;28;20536;-73
2023/06/11 00:57:25;;;;;;;5.87;5.33;;;16.60;87.10;;;-147.95;100.00;61948.03;5025581;28;20512;-73
2023/06/11 00:59:54;;;;;;;6.77;6.03;;;16.60;87.50;;;-147.95;100.00;61948.03;4993932;28;20461;-72
2023/06/11 01:02:26;;;;;;;7.03;5.40;;;16.50;87.80;;;-147.95;100.00;61948.03;5009459;28;20449;-73
2023/06/11 01:04:57;;;;;;;6.87;6.20;;;16.40;88.10;;;-147.95;100.00;61948.03;5028166;28;21209;-72
2023/06/11 01:07:30;;;;;;;6.50;5.90;;;16.40;88.40;;;-147.95;100.00;61948.03;5026520;28;20469;-72
2023/06/11 01:09:58;;;;;;;5.93;5.33;;;16.50;87.70;;;-147.95;100.00;61948.03;5020547;28;20481;-72
2023/06/11 01:12:26;;;;;;;5.70;5.10;;;16.50;87.80;;;-147.95;100.00;61948.03;5009049;28;20886;-71
2023/06/11 01:14:53;;;;;;;6.37;5.87;;;16.50;88.10;;;-147.95;100.00;61948.03;5019772;28;20446;-71
2023/06/11 01:17:29;;;;;;;6.00;5.50;;;16.50;88.50;;;-147.95;100.00;61948.03;5024843;28;20474;-70
2023/06/11 01:20:12;;;;;;;6.50;6.00;;;16.50;87.80;;;-147.95;100.00;61948.03;4985996;28;20468;-71
2023/06/11 01:23:17;;;;;;;6.00;5.50;;;16.50;87.70;;;-147.95;100.00;61948.03;5026280;28;20558;-72
2023/06/11 01:25:57;;;;;;;6.90;6.20;;;16.50;88.30;;;-147.95;100.00;61948.03;5026621;28;20460;-72
2023/06/11 01:28:31;;;;;;;7.33;5.70;;;16.50;87.90;;;-147.95;100.00;61948.03;5009256;28;20954;-72
2023/06/11 01:31:01;;;;;;;7.47;6.73;;;16.50;87.70;;;-147.95;100.00;61948.03;5026846;28;20457;-70
2023/06/11 01:33:34;;;;;;;6.27;5.77;;;16.50;87.60;;;-147.95;100.00;61948.03;5027445;28;20458;-70
2023/06/11 01:36:01;;;;;;;7.63;5.73;;;16.50;87.60;;;-147.95;100.00;61948.03;5008130;28;20466;-72
2023/06/11 01:38:30;;;;;;;7.33;6.00;;;16.50;88.00;;;-147.95;100.00;61948.03;5026735;28;20457;-70
2023/06/11 01:40:58;;;;;;;6.90;6.30;;;16.50;87.40;;;-147.95;100.00;61948.03;5026661;28;20446;-73
2023/06/11 01:43:30;;;;;;;6.60;6.00;;;16.50;87.50;;;-147.95;100.00;61948.03;5026114;28;20454;-72
2023/06/11 01:45:58;;;;;;;6.13;5.60;;;16.50;87.50;;;-147.95;100.00;61948.03;5019111;28;20560;-72
2023/06/11 01:48:25;;;;;;;6.47;5.87;;;16.40;87.90;;;-147.95;100.00;61948.03;5025136;28;20457;-72
2023/06/11 01:50:52;;;;;;;5.90;5.40;;;16.30;88.00;;;-147.95;100.00;61948.03;5008987;28;20457;-72
2023/06/11 01:53:20;;;;;;;6.50;5.60;;;16.30;87.80;;;-147.95;100.00;61948.03;5027076;28;20469;-70
2023/06/11 01:55:47;;;;;;;7.07;6.37;;;16.40;87.80;;;-147.95;100.00;61948.03;5027349;28;20858;-69
2023/06/11 01:58:16;;;;;;;7.70;6.50;;;16.40;87.80;;;-147.95;100.00;61948.03;5028485;28;20469;-72
2023/06/11 02:00:47;;;;;;;8.00;6.57;;;16.40;87.80;;;-147.95;100.00;61948.03;5011451;28;20603;-72
2023/06/11 02:03:15;;;;;;;6.63;6.03;;;16.20;88.60;;;-147.95;100.00;61948.03;5030901;28;20462;-71
2023/06/11 02:05:43;;;;;;;6.97;6.27;;;16.20;89.10;;;-147.95;100.00;61948.03;5028356;28;20470;-71
2023/06/11 02:08:10;;;;;;;7.20;6.50;;;16.20;89.00;;;-147.95;100.00;61948.03;5008878;28;20449;-71
2023/06/11 02:10:37;;;;;;;6.97;6.30;;;16.20;88.50;;;-147.95;100.00;61948.03;5024669;28;20888;-72
2023/06/11 02:13:05;;;;;;;7.07;5.57;;;16.20;89.40;;;-147.95;100.00;61948.03;5026481;28;20531;-71
2023/06/11 02:15:32;;;;;;;7.40;6.60;;;16.10;88.90;;;-147.95;100.00;61948.03;5026078;28;20454;-74
2023/06/11 02:18:01;;;;;;;7.27;6.57;;;16.10;89.60;;;-147.95;100.00;61948.03;5024863;28;20465;-71
2023/06/11 02:20:28;;;;;;;6.17;5.67;;;16.00;90.10;;;-147.95;100.00;61948.03;5026386;28;20459;-71
2023/06/11 02:22:55;;;;;;;7.10;6.40;;;16.00;90.30;;;-147.95;100.00;61948.03;5025886;28;20535;-71
2023/06/11 02:25:23;;;;;;;6.33;5.73;;;16.00;90.10;;;-147.95;100.00;61948.03;5026315;28;20462;-71
2023/06/11 02:27:50;;;;;;;7.10;6.50;;;16.00;90.30;;;-147.95;100.00;61948.03;5026086;28;20454;-72
2023/06/11 02:30:17;;;;;;;7.07;6.37;;;16.10;90.20;;;-147.95;100.00;61948.03;5025476;28;20478;-71
2023/06/11 02:32:46;;;;;;;8.03;7.23;;;16.10;90.10;;;-147.95;100.00;61948.03;5007631;28;20458;-72
2023/06/11 02:35:15;;;;;;;10.60;5.60;;;16.10;90.40;;;-147.95;100.00;61948.03;5026200;28;20452;-71
2023/06/11 02:37:42;;;;;;;10.03;6.87;;;16.00;90.40;;;-147.95;100.00;61948.03;5024673;28;20600;-72
2023/06/11 02:40:11;;;;;;;7.30;6.50;;;15.90;90.70;;;-147.95;100.00;61948.03;5024735;28;20465;-71
2023/06/11 02:42:38;;;;;;;7.07;6.37;;;15.90;90.60;;;-147.95;100.00;61948.03;5026520;28;21012;-72
2023/06/11 02:45:07;;;;;;;8.17;6.70;;;15.90;90.70;;;-147.95;100.00;61948.03;5008276;28;20548;-72
2023/06/11 02:47:34;;;;;;;6.93;6.23;;;15.90;90.70;;;-147.95;100.00;61948.03;5025089;28;21033;-72
2023/06/11 02:50:01;;;;;;;9.60;7.30;;;15.80;91.10;;;-147.95;100.00;61948.03;5026910;28;20520;-71
2023/06/11 02:52:30;;;;;;;7.70;6.70;;;15.80;91.40;;;-147.95;100.00;61948.03;5026729;28;20483;-72
2023/06/11 02:54:57;;;;;;;8.40;7.50;;;15.80;91.50;;;-147.95;100.00;61948.03;5027254;28;20586;-71
2023/06/11 02:57:25;;;;;;;8.10;7.40;;;15.80;91.40;;;-147.95;100.00;61948.03;5028224;28;20511;-72
2023/06/11 02:59:52;;;;;;;7.93;6.80;;;15.70;91.70;;;-147.95;100.00;61948.03;5009329;28;20453;-71
2023/06/11 03:02:19;;;;;;;8.37;7.57;;;15.70;91.80;;;-147.95;100.00;61948.03;5025950;28;20899;-70
2023/06/11 03:04:46;;;;;;;8.47;7.60;;;15.70;92.10;;;-147.95;100.00;61948.03;5026466;28;20954;-72
2023/06/11 03:07:13;;;;;;;7.20;6.50;;;15.70;92.10;;;-147.95;100.00;61948.03;5025629;28;20945;-72
2023/06/11 03:09:42;;;;;;;8.77;7.77;;;15.70;92.10;;;-147.95;100.00;61948.03;5008945;28;20903;-72
2023/06/11 03:12:11;;;;;;;7.67;6.90;;;15.70;92.10;;;-147.95;100.00;61948.03;5025563;28;20496;-72
2023/06/11 03:14:38;;;;;;;7.83;7.13;;;15.70;92.00;;;-147.95;100.00;61948.03;5024496;28;20465;-71
2023/06/11 03:17:05;;;;;;;9.20;7.80;;;15.80;92.00;;;-147.95;100.00;61948.03;5024379;28;20538;-71
2023/06/11 03:19:32;;;;;;;8.07;7.30;;;15.70;92.10;;;-147.95;100.00;61948.03;5026737;28;20485;-71
2023/06/11 03:22:00;;;;;;;8.37;7.57;;;15.70;92.20;;;-147.95;100.00;61948.03;5025513;28;20483;-73
2023/06/11 03:24:27;;;;;;;8.90;7.47;;;15.70;92.10;;;-147.95;100.00;61948.03;5026790;28;21019;-72
2023/06/11 03:26:56;;;;;;;8.47;7.70;;;15.70;92.20;;;-147.95;100.00;61948.03;5027163;28;20470;-71
2023/06/11 03:29:23;;;;;;;11.90;8.33;;;15.70;92.20;;;-147.95;100.00;61948.03;5029635;28;21061;-71
2023/06/11 03:31:50;;;;;;;8.27;7.37;;;15.70;92.10;;;-147.95;100.00;61948.03;5028756;28;21131;-72
2023/06/11 03:34:17;;;;;;;9.37;8.30;;;15.80;92.20;;;-147.95;100.00;61948.03;5029570;28;20460;-73
2023/06/11 03:36:45;;;;;;;8.80;8.00;;;15.80;92.00;;;-147.95;100.00;61948.03;5029072;28;20452;-72
2023/06/11 03:39:12;;;;;;;9.10;8.10;;;15.80;91.90;;;-147.95;100.00;61948.03;5029568;28;20457;-73
2023/06/11 03:41:39;;;;;;;8.17;7.37;;;15.90;91.80;;;-147.95;100.00;61948.03;5031328;28;20459;-72
2023/06/11 03:44:08;;;;;;;9.47;7.93;;;15.90;91.70;;;-147.95;100.00;61948.03;5029440;28;20973;-73
2023/06/11 03:46:35;;;;;;;8.50;7.60;;;15.90;91.70;;;-147.95;100.00;61948.03;5028384;28;20449;-72
2023/06/11 03:49:03;;;;;;;8.60;7.80;;;15.90;91.70;;;-147.95;100.00;61948.03;5027244;28;20457;-72
2023/06/11 03:51:30;;;;;;;8.60;7.63;;;15.90;91.40;;;-147.95;100.00;61948.03;5027516;28;20453;-72
2023/06/11 03:53:57;;;;;;;8.83;8.03;;;15.90;91.50;;;-147.95;100.00;61948.03;5028423;28;20547;-73
2023/06/11 03:56:25;;;;;;;8.87;8.03;;;15.90;91.40;;;-147.95;100.00;61948.03;5028200;28;20944;-71
2023/06/11 03:58:52;;;;;;;8.50;7.70;;;15.90;91.10;;;-147.95;100.00;61948.03;5027181;28;20483;-70
2023/06/11 04:01:21;;;;;;;8.60;7.70;;;15.90;91.40;;;-147.95;100.00;61948.03;5028919;28;20463;-70
2023/06/11 04:03:48;;;;;;;9.30;8.40;;;16.00;91.00;;;-147.95;100.00;61948.03;5029360;28;21100;-73
2023/06/11 04:06:16;;;;;;;8.20;7.40;;;16.20;90.70;;;-147.95;100.00;61948.03;5028602;28;20518;-71
2023/06/11 04:08:43;;;;;;;9.20;8.27;;;16.70;89.30;;;-147.95;100.00;61948.03;5028525;28;20536;-71
2023/06/11 04:11:10;;;;;;;8.90;8.10;;;17.40;86.40;;;-147.95;100.00;61948.03;5027724;28;21178;-71
2023/06/11 04:13:37;;;;;;;8.50;7.70;;;18.10;84.60;;;-147.95;100.00;61948.03;5010853;28;20465;-73
2023/06/11 04:16:05;;;;;;;9.50;8.60;;;18.50;83.20;;;-147.95;100.00;61948.03;5027458;28;21008;-72
2023/06/11 04:18:34;;;;;;;8.53;7.73;;;18.70;82.40;;;-147.95;100.00;61948.03;5028020;28;20465;-72
2023/06/11 04:21:01;;;;;;;10.70;8.40;;;18.90;81.30;;;-147.95;100.00;61948.03;5028032;28;20466;-71
2023/06/11 04:23:28;;;;;;;9.17;8.37;;;19.10;80.60;;;-147.95;100.00;61948.03;5027707;28;20520;-73
2023/06/11 04:25:56;;;;;;;9.00;8.20;;;19.30;79.90;;;-147.95;100.00;61948.03;5027159;28;20820;-73
2023/06/11 04:28:25;;;;;;;9.10;8.23;;;19.20;79.60;;;-147.95;100.00;61948.03;5005159;28;20463;-73
2023/06/11 04:30:56;;;;;;;8.23;7.43;;;19.30;79.30;;;-147.95;100.00;61948.03;5027277;28;20880;-73
2023/06/11 04:33:24;;;;;;;9.77;8.40;;;19.50;78.80;;;-147.95;100.00;61948.03;5028719;28;20465;-73
2023/06/11 04:35:56;;;;;;;8.70;7.80;;;19.80;78.30;;;-147.95;100.00;61948.03;5026155;28;20956;-72
2023/06/11 04:38:24;;;;;;;9.20;8.30;;;20.20;77.30;;;-147.95;100.00;61948.03;5028236;28;20463;-72
2023/06/11 04:40:51;;;;;;;8.67;7.90;;;20.30;76.60;;;-147.95;100.00;61948.03;5026532;28;20459;-72
2023/06/11 04:43:23;;;;;;;9.27;8.47;;;20.30;76.00;;;-147.95;100.00;61948.03;5010602;28;20454;-72
2023/06/11 04:45:55;;;;;;;11.93;8.63;;;20.80;75.20;;;-147.95;100.00;61948.03;5010253;28;21042;-72
2023/06/11 04:48:24;;;;;;;8.90;8.10;;;20.70;74.30;;;-147.95;100.00;61948.03;5013603;28;20531;-72
2023/06/11 04:50:53;;;;;;;9.83;7.83;;;20.60;74.20;;;-147.95;100.00;61948.03;5034930;28;20470;-73
2023/06/11 04:53:23;;;;;;;8.33;7.63;;;20.70;73.90;;;-147.95;100.00;61948.03;5037206;28;20524;-72
2023/06/11 04:55:51;;;;;;;8.67;7.60;;;20.90;73.60;;;-147.95;100.00;61948.03;5031081;28;20455;-73
2023/06/11 04:58:20;;;;;;;8.50;7.73;;;21.40;72.60;;;-147.95;100.00;61948.03;5028197;28;20462;-73
2023/06/11 05:00:48;;;;;;;9.27;8.30;;;21.50;71.90;;;-147.95;100.00;61948.03;5010178;28;21848;-72
2023/06/11 05:03:16;;;;;;;8.57;7.77;;;21.50;71.00;;;-147.95;100.00;61948.03;5010105;28;20458;-71
2023/06/11 05:05:49;;;;;;;9.53;8.73;;;21.60;70.90;;;-147.95;100.00;61948.03;5026969;28;20549;-73
2023/06/11 05:08:18;;;;;;;8.20;7.40;;;22.00;69.90;;;-147.95;100.00;61948.03;5026233;28;20461;-72
2023/06/11 05:10:46;;;;;;;9.17;8.27;;;21.70;69.70;;;-147.95;100.00;61948.03;5028872;28;20478;-72
2023/06/11 05:13:13;;;;;;;8.77;7.97;;;21.40;69.90;;;-147.95;100.00;61948.03;5028915;28;20674;-72
2023/06/11 05:15:41;;;;;;;8.00;7.30;;;21.40;70.10;;;-147.95;100.00;61948.03;5007187;28;20552;-72
2023/06/11 05:18:08;;;;;;;9.00;8.23;;;21.60;69.50;;;-147.95;100.00;61948.03;5025507;28;20458;-73
2023/06/11 05:20:36;;;;;;;9.03;8.10;;;21.70;69.20;;;-147.95;100.00;61948.03;5015097;28;20512;-73
2023/06/11 05:23:04;;;;;;;8.67;7.87;;;21.40;69.60;;;-147.95;100.00;61948.03;5026155;28;21048;-73
2023/06/11 05:25:33;;;;;;;9.07;8.27;;;21.60;69.40;;;-147.95;100.00;61948.03;5027012;28;20466;-72
2023/06/11 05:28:02;;;;;;;8.43;7.70;;;21.90;68.90;;;-147.95;100.00;61948.03;5027255;28;20494;-71
2023/06/11 05:30:36;;;;;;;9.73;8.80;;;22.30;68.00;;;-147.95;100.00;61948.03;5026756;28;20535;-71
2023/06/11 05:33:05;;;;;;;8.90;8.10;;;21.90;67.50;;;-147.95;100.00;61948.03;5026066;28;20821;-75
2023/06/11 05:35:32;;;;;;;8.47;7.77;;;21.50;67.30;;;-147.95;100.00;61948.03;5026546;28;21040;-73
2023/06/11 05:38:03;;;;;;;9.17;8.37;;;21.30;67.90;;;-147.95;100.00;61948.03;5025679;28;20980;-71
2023/06/11 05:40:32;;;;;;;9.03;8.23;;;20.80;68.30;;;-147.95;100.00;61948.03;5026770;28;20464;-72
2023/06/11 05:42:59;;;;;;;8.47;7.67;;;21.00;68.40;;;-147.95;100.00;61948.03;5030575;28;20948;-74
2023/06/11 05:45:27;;;;;;;8.30;7.57;;;21.40;68.50;;;-147.95;100.00;61948.03;5027190;28;20457;-72
2023/06/11 05:47:54;;;;;;;8.10;7.40;;;22.20;67.40;;;-147.95;100.00;61948.03;5017936;28;20466;-71
2023/06/11 05:50:22;;;;;;;8.40;7.60;;;21.90;66.00;;;-147.95;100.00;61948.03;5026410;28;20535;-72
2023/06/11 05:52:49;;;;;;;8.43;7.73;;;22.10;65.80;;;-147.95;100.00;61948.03;5009640;28;20462;-72
2023/06/11 05:55:17;;;;;;;8.10;7.30;;;21.60;65.50;;;-147.95;100.00;61948.03;5008589;28;20545;-72
2023/06/11 05:57:46;;;;;;;8.10;7.40;;;21.70;66.30;;;-147.95;100.00;61948.03;5026794;28;20462;-71
2023/06/11 06:00:14;;;;;;;7.53;6.87;;;22.50;64.80;;;-147.95;100.00;61948.03;5026557;28;20469;-74
2023/06/11 06:02:41;;;;;;;8.57;7.87;;;22.40;63.60;;;-147.95;100.00;61948.03;5027055;28;20488;-73
2023/06/11 06:05:09;;;;;;;8.00;7.30;;;22.50;64.30;;;-147.95;100.00;61948.03;5024701;28;20469;-74
2023/06/11 06:07:36;;;;;;;8.03;7.33;;;23.50;63.20;;;-147.95;100.00;61948.03;5026400;28;20464;-75
2023/06/11 06:10:04;;;;;;;8.10;7.30;;;23.90;61.30;;;-147.95;100.00;61948.03;5025263;28;20483;-74
2023/06/11 06:12:31;;;;;;;7.63;6.93;;;24.00;60.60;;;-147.95;100.00;61948.03;5025818;28;20466;-78
2023/06/11 06:15:00;;;;;;;9.00;7.97;;;23.70;60.60;;;-147.95;100.00;61948.03;5007214;28;20467;-74
2023/06/11 06:17:27;;;;;;;8.00;7.20;;;24.00;59.70;;;-147.95;100.00;61948.03;5010740;28;20553;-75
2023/06/11 06:19:54;;;;;;;8.10;7.40;;;24.00;59.60;;;-147.95;100.00;61948.03;5009917;28;20471;-75
2023/06/11 06:22:22;;;;;;;7.93;7.23;;;23.80;59.60;;;-147.95;100.00;61948.03;5026703;28;20965;-75
2023/06/11 06:24:49;;;;;;;8.53;7.63;;;23.70;59.20;;;-147.95;100.00;61948.03;5026831;28;20495;-74
2023/06/11 06:27:18;;;;;;;8.57;7.77;;;24.20;59.50;;;-147.95;100.00;61948.03;5025454;28;20465;-76
2023/06/11 06:29:45;;;;;;;8.53;7.63;;;24.30;58.50;;;-147.95;100.00;61948.03;5026043;28;20465;-75
2023/06/11 06:32:13;;;;;;;7.83;7.13;;;23.00;58.60;;;-147.95;100.00;61948.03;5024770;28;20517;-75
2023/06/11 06:34:41;;;;;;;7.50;6.80;;;22.00;60.00;;;-147.95;100.00;61948.03;5027160;28;20496;-74
2023/06/11 06:37:09;;;;;;;8.20;7.50;;;21.40;61.40;;;-147.95;100.00;61948.03;5007817;28;20553;-75
2023/06/11 06:39:36;;;;;;;8.27;7.57;;;21.00;62.40;;;-147.95;100.00;61948.03;5025705;28;20501;-74
2023/06/11 06:42:04;;;;;;;8.07;7.27;;;20.80;63.70;;;-147.95;100.00;61948.03;5026081;28;20531;-77
2023/06/11 06:44:31;;;;;;;8.00;7.20;;;21.00;63.60;;;-147.95;100.00;61948.03;5008932;28;20469;-74
2023/06/11 06:46:58;;;;;;;7.77;7.10;;;21.10;63.30;;;-147.95;100.00;61948.03;5025555;28;20914;-75
2023/06/11 06:49:27;;;;;;;7.53;6.83;;;21.10;63.50;;;-147.95;100.00;61948.03;5027318;28;20462;-75
2023/06/11 06:51:54;;;;;;;8.50;7.60;;;21.00;63.60;;;-147.95;100.00;61948.03;5018284;28;20573;-75
2023/06/11 06:54:21;;;;;;;8.20;7.50;;;20.80;63.90;;;-147.95;100.00;61948.03;5026994;28;20484;-76
2023/06/11 06:56:49;;;;;;;8.70;7.90;;;20.90;64.10;;;-147.95;100.00;61948.03;5025646;28;20470;-77
2023/06/11 06:59:17;;;;;;;8.63;7.73;;;21.00;64.50;;;-147.95;100.00;61948.03;5028717;28;20459;-75
2023/06/11 07:01:44;;;;;;;8.73;7.93;;;21.00;64.10;;;-147.95;100.00;61948.03;5029582;28;20463;-73
2023/06/11 07:04:11;;;;;;;7.63;7.00;;;21.20;64.20;;;-147.95;100.00;61948.03;5030190;28;20476;-76
2023/06/11 07:06:40;;;;;;;8.63;7.77;;;21.30;64.70;;;-147.95;100.00;61948.03;5028409;28;20828;-74
2023/06/11 07:09:07;;;;;;;7.33;6.63;;;21.40;64.70;;;-147.95;100.00;61948.03;5012232;28;20465;-76
2023/06/11 07:11:34;;;;;;;7.83;7.07;;;21.60;64.10;;;-147.95;100.00;61948.03;5028903;28;20486;-76
2023/06/11 07:14:02;;;;;;;8.93;7.40;;;21.70;64.10;;;-147.95;100.00;61948.03;5030210;28;20460;-74
2023/06/11 07:16:29;;;;;;;8.43;7.63;;;21.80;64.10;;;-147.95;100.00;61948.03;5027975;28;20450;-75
2023/06/11 07:18:56;;;;;;;7.37;6.67;;;22.00;63.80;;;-147.95;100.00;61948.03;5010739;28;20465;-77
2023/06/11 07:21:24;;;;;;;8.07;7.27;;;21.90;63.10;;;-147.95;100.00;61948.03;5035362;28;20565;-75
2023/06/11 07:23:52;;;;;;;8.40;7.40;;;21.80;62.80;;;-147.95;100.00;61948.03;5028833;28;20450;-76
2023/06/11 07:26:19;;;;;;;8.00;7.27;;;22.00;63.00;;;-147.95;100.00;61948.03;5011541;28;20948;-73
2023/06/11 07:28:47;;;;;;;7.50;6.70;;;22.10;62.50;;;-147.95;100.00;61948.03;5011750;28;20469;-75
2023/06/11 07:31:14;;;;;;;7.03;6.40;;;22.20;62.80;;;-147.95;100.00;61948.03;5029512;28;20471;-74
2023/06/11 07:33:44;;;;;;;7.70;7.00;;;22.30;62.30;;;-147.95;100.00;61948.03;5030112;28;20465;-75
2023/06/11 07:36:11;;;;;;;9.23;7.90;;;22.40;61.50;;;-147.95;100.00;61948.03;5028296;28;20461;-75
2023/06/11 07:38:38;;;;;;;7.57;6.87;;;22.30;61.20;;;-147.95;100.00;61948.03;5019725;28;20454;-76
2023/06/11 07:41:07;;;;;;;7.57;6.77;;;22.40;61.50;;;-147.95;100.00;61948.03;5039480;28;20451;-76
2023/06/11 07:43:34;;;;;;;8.17;7.37;;;22.40;60.60;;;-147.95;100.00;61948.03;5041813;28;20462;-73
2023/06/11 07:46:03;;;;;;;6.30;5.80;;;22.40;60.20;;;-147.95;100.00;61948.03;5046265;28;20482;-75
2023/06/11 07:48:30;;;;;;;7.00;6.47;;;22.50;59.40;;;-147.95;100.00;61948.03;5038350;28;20465;-75
2023/06/11 07:50:58;;;;;;;6.67;6.07;;;22.60;59.70;;;-147.95;100.00;61948.03;5012481;28;20462;-75
2023/06/11 07:53:25;;;;;;;6.20;5.70;;;22.60;59.40;;;-147.95;100.00;61948.03;5012274;28;20451;-75
2023/06/11 07:55:56;;;;;;;6.87;6.20;;;22.70;59.70;;;-147.95;100.00;61948.03;5027726;28;20486;-76
2023/06/11 07:58:25;;;;;;;7.03;6.33;;;22.80;58.70;;;-147.95;100.00;61948.03;5011062;28;20458;-77
2023/06/11 08:00:53;;;;;;;6.47;5.97;;;23.00;58.60;;;-147.95;100.00;61948.03;5027809;28;20445;-76
2023/06/11 08:03:21;;;;;;;6.87;6.27;;;23.00;57.90;;;-147.95;100.00;61948.03;5011683;28;20462;-77
2023/06/11 08:05:50;;;;;;;7.13;6.07;;;23.10;57.10;;;-147.95;100.00;61948.03;5009873;28;20463;-76
2023/06/11 08:08:17;;;;;;;7.20;5.50;;;23.10;56.50;;;-147.95;100.00;61948.03;5028118;28;20470;-76
2023/06/11 08:10:50;;;;;;;6.23;5.63;;;23.30;56.30;;;-147.95;100.00;61948.03;5027962;28;20487;-76
2023/06/11 08:13:18;;;;;;;7.37;6.57;;;23.10;54.10;;;-147.95;100.00;61948.03;5011488;28;20524;-75
2023/06/11 08:15:46;;;;;;;6.60;5.97;;;23.10;55.00;;;-147.95;100.00;61948.03;5010388;28;20460;-75
2023/06/11 08:18:14;;;;;;;7.60;6.33;;;23.30;55.50;;;-147.95;100.00;61948.03;5028544;28;20512;-76
2023/06/11 08:20:41;;;;;;;6.60;5.97;;;23.30;55.00;;;-147.95;100.00;61948.03;5028256;28;20461;-77
2023/06/11 08:23:09;;;;;;;8.33;6.30;;;23.50;55.30;;;-147.95;100.00;61948.03;5025482;28;20558;-74
2023/06/11 08:25:36;;;;;;;6.17;5.50;;;23.50;53.30;;;-147.95;100.00;61948.03;5010143;28;20943;-76
2023/06/11 08:28:04;;;;;;;5.37;4.87;;;23.30;53.20;;;-147.95;100.00;61948.03;5028207;28;20456;-79
2023/06/11 08:30:31;;;;;;;6.33;5.80;;;23.20;53.00;;;-147.95;100.00;61948.03;5026349;28;20458;-77
2023/06/11 08:33:00;;;;;;;8.10;5.70;;;23.30;53.50;;;-147.95;100.00;61948.03;5028680;28;20463;-74
2023/06/11 08:35:27;;;;;;;6.23;5.63;;;23.40;52.90;;;-147.95;100.00;61948.03;5026386;28;21069;-75
2023/06/11 08:37:54;;;;;;;6.83;6.20;;;23.50;53.60;;;-147.95;100.00;61948.03;5018461;28;20479;-76
2023/06/11 08:40:22;;;;;;;5.90;5.40;;;23.80;54.20;;;-147.95;100.00;61948.03;5027854;28;21280;-76
2023/06/11 08:42:50;;;;;;;6.50;5.90;;;24.10;53.40;;;-147.95;100.00;61948.03;5028066;28;20456;-75
2023/06/11 08:45:17;;;;;;;5.73;5.30;;;24.10;52.70;;;-147.95;100.00;61948.03;5027743;28;20536;-76
2023/06/11 08:47:50;;;;;;;6.30;5.70;;;24.10;52.40;;;-147.95;100.00;61948.03;5027883;28;20451;-76
2023/06/11 08:50:21;;;;;;;6.20;5.63;;;24.20;51.20;;;-147.95;100.00;61948.03;5028083;28;20470;-76
2023/06/11 08:52:51;;;;;;;5.10;4.67;;;24.10;50.90;;;-147.95;100.00;61948.03;5028497;28;22391;-76
2023/06/11 08:55:20;;;;;;;5.00;4.60;;;24.20;49.50;;;-147.95;100.00;61948.03;5027449;28;20471;-75
2023/06/11 08:57:47;;;;;;;5.27;4.77;;;24.10;49.30;;;-147.95;100.00;61948.03;5027402;28;20523;-76
2023/06/11 09:00:15;;;;;;;5.50;3.87;;;24.00;48.60;;;-147.95;100.00;61948.03;5025906;28;20455;-76
2023/06/11 09:02:43;;;;;;;5.63;4.57;;;24.10;48.40;;;-147.95;100.00;61948.03;5010382;28;20800;-77
2023/06/11 09:05:12;;;;;;;5.90;5.30;;;24.10;47.90;;;-147.95;100.00;61948.03;5025255;28;20877;-77
2023/06/11 09:07:49;;;;;;;5.37;4.80;;;24.20;46.80;;;-147.95;100.00;61948.03;5027277;28;20470;-77
2023/06/11 09:10:18;;;;;;;5.80;5.30;;;24.30;47.40;;;-147.95;100.00;61948.03;5027290;28;20465;-76
2023/06/11 09:12:46;;;;;;;4.50;4.10;;;24.30;47.40;;;-147.95;100.00;61948.03;5026205;28;20480;-77
2023/06/11 09:15:14;;;;;;;6.00;4.27;;;24.00;46.60;;;-147.95;100.00;61948.03;5026978;28;20453;-76
2023/06/11 09:17:44;;;;;;;4.83;4.43;;;24.00;47.20;;;-147.95;100.00;61948.03;5009453;28;20451;-77
2023/06/11 09:20:14;;;;;;;5.27;4.77;;;24.20;46.90;;;-147.95;100.00;61948.03;5026189;28;20467;-75
2023/06/11 09:22:44;;;;;;;4.83;4.43;;;24.30;46.80;;;-147.95;100.00;61948.03;5026861;28;20512;-74
2023/06/11 09:25:16;;;;;;;6.20;4.20;;;24.40;47.20;;;-147.95;100.00;61948.03;5024741;28;20465;-76
2023/06/11 09:27:45;;;;;;;4.63;4.17;;;24.30;46.60;;;-147.95;100.00;61948.03;5009286;28;21017;-75
2023/06/11 09:30:16;;;;;;;4.70;3.97;;;24.30;45.20;;;-147.95;100.00;61948.03;5007119;28;20978;-75
2023/06/11 09:32:45;;;;;;;4.03;3.70;;;24.30;44.90;;;-147.95;100.00;61948.03;5007142;28;20965;-75
2023/06/11 09:35:13;;;;;;;4.60;3.80;;;24.30;43.90;;;-147.95;100.00;61948.03;5009082;28;20520;-73
2023/06/11 09:37:45;;;;;;;4.13;3.80;;;24.40;44.10;;;-147.95;100.00;61948.03;5025413;28;20499;-76
2023/06/11 09:40:16;;;;;;;4.20;3.80;;;24.40;44.40;;;-147.95;100.00;61948.03;5026844;28;20470;-75
2023/06/11 09:42:45;;;;;;;4.00;3.60;;;24.40;44.80;;;-147.95;100.00;61948.03;5030274;28;20457;-76
2023/06/11 09:45:17;;;;;;;4.40;4.00;;;24.40;44.40;;;-147.95;100.00;61948.03;5026484;28;20456;-77
2023/06/11 09:47:46;;;;;;;4.27;3.87;;;24.30;43.80;;;-147.95;100.00;61948.03;5008870;28;20530;-77
2023/06/11 09:50:15;;;;;;;4.10;3.80;;;24.30;43.90;;;-147.95;100.00;61948.03;5026801;28;20498;-77
2023/06/11 09:52:45;;;;;;;3.50;3.20;;;24.40;44.00;;;-147.95;100.00;61948.03;5026137;28;20557;-76
2023/06/11 09:55:14;;;;;;;5.07;3.43;;;24.40;43.40;;;-147.95;100.00;61948.03;5029987;28;20463;-76
2023/06/11 09:57:43;;;;;;;4.53;4.13;;;24.50;44.10;;;-147.95;100.00;61948.03;5029499;28;20462;-76
2023/06/11 10:00:12;;;;;;;3.70;3.40;;;24.70;44.30;;;-147.95;100.00;61948.03;5027829;28;20467;-75
2023/06/11 10:02:40;;;;;;;4.27;3.87;;;24.80;43.40;;;-147.95;100.00;61948.03;5029363;28;20924;-75
2023/06/11 10:05:10;;;;;;;4.20;3.90;;;24.80;43.70;;;-147.95;100.00;61948.03;5025307;28;20468;-75